sensor_id;sensor_type;location;lat;lon;timestamp;P1;durP1;ratioP1;P2;durP2;ratioP2
13733;SDS011;43298;52.560;13.508;2024-02-26T00:00:11;1.30;;;1.30;;
13733;SDS011;43298;52.560;13.508;2024-02-26T00:02:38;1.30;;;1.30;;
13733;SDS011;43298;52.560;13.508;2024-02-26T00:05:07;2.00;;;1.90;;
13733;SDS011;43298;52.560;13.508;2024-02-26T00:07:34;1.50;;;1.50;;
13733;SDS011;43298;52.560;13.508;2024-02-26T00:10:00;1.52;;;1.48;;
13733;SDS011;43298;52.560;13.508;2024-02-26T00:12:26;1.40;;;1.40;;
13733;SDS011;43298;52.560;13.508;2024-02-26T00:14:52;1.65;;;1.55;;
13733;SDS011;43298;52.560;13.508;2024-02-26T00:17:18;1.52;;;1.50;;
13733;SDS011;43298;52.560;13.508;2024-02-26T00:19:45;1.80;;;1.70;;
13733;SDS011;43298;52.560;13.508;2024-02-26T00:22:11;1.73;;;1.63;;
13733;SDS011;43298;52.560;13.508;2024-02-26T00:24:37;2.92;;;2.75;;
13733;SDS011;43298;52.560;13.508;2024-02-26T00:27:04;1.80;;;1.70;;
13733;SDS011;43298;52.560;13.508;2024-02-26T00:29:30;3.08;;;2.83;;
13733;SDS011;43298;52.560;13.508;2024-02-26T00:31:57;1.55;;;1.50;;
13733;SDS011;43298;52.560;13.508;2024-02-26T00:34:23;2.08;;;1.98;;
13733;SDS011;43298;52.560;13.508;2024-02-26T00:36:50;1.70;;;1.60;;
13733;SDS011;43298;52.560;13.508;2024-02-26T00:39:16;1.50;;;1.50;;
13733;SDS011;43298;52.560;13.508;2024-02-26T00:41:42;1.52;;;1.50;;
13733;SDS011;43298;52.560;13.508;2024-02-26T00:44:08;1.40;;;1.40;;
13733;SDS011;43298;52.560;13.508;2024-02-26T00:46:34;1.50;;;1.50;;
13733;SDS011;43298;52.560;13.508;2024-02-26T00:49:00;1.40;;;1.40;;
13733;SDS011;43298;52.560;13.508;2024-02-26T00:51:27;1.90;;;1.80;;
13733;SDS011;43298;52.560;13.508;2024-02-26T00:53:54;1.65;;;1.55;;
13733;SDS011;43298;52.560;13.508;2024-02-26T00:56:21;1.75;;;1.65;;
13733;SDS011;43298;52.560;13.508;2024-02-26T00:58:47;1.52;;;1.50;;
13733;SDS011;43298;52.560;13.508;2024-02-26T01:01:13;1.70;;;1.60;;
13733;SDS011;43298;52.560;13.508;2024-02-26T01:03:39;1.48;;;1.48;;
13733;SDS011;43298;52.560;13.508;2024-02-26T01:06:05;1.80;;;1.70;;
13733;SDS011;43298;52.560;13.508;2024-02-26T01:08:32;1.92;;;1.83;;
13733;SDS011;43298;52.560;13.508;2024-02-26T01:10:58;1.70;;;1.60;;
13733;SDS011;43298;52.560;13.508;2024-02-26T01:13:24;1.60;;;1.50;;
13733;SDS011;43298;52.560;13.508;2024-02-26T01:15:50;1.70;;;1.60;;
13733;SDS011;43298;52.560;13.508;2024-02-26T01:18:16;1.85;;;1.75;;
13733;SDS011;43298;52.560;13.508;2024-02-26T01:20:42;1.80;;;1.70;;
13733;SDS011;43298;52.560;13.508;2024-02-26T01:23:08;1.70;;;1.60;;
13733;SDS011;43298;52.560;13.508;2024-02-26T01:25:34;1.70;;;1.60;;
13733;SDS011;43298;52.560;13.508;2024-02-26T01:28:01;1.88;;;1.77;;
13733;SDS011;43298;52.560;13.508;2024-02-26T01:30:28;1.90;;;1.80;;
13733;SDS011;43298;52.560;13.508;2024-02-26T01:32:54;1.80;;;1.70;;
13733;SDS011;43298;52.560;13.508;2024-02-26T01:35:20;1.90;;;1.80;;
13733;SDS011;43298;52.560;13.508;2024-02-26T01:37:46;2.00;;;1.90;;
13733;SDS011;43298;52.560;13.508;2024-02-26T01:40:12;1.77;;;1.67;;
13733;SDS011;43298;52.560;13.508;2024-02-26T01:42:42;1.90;;;1.80;;
13733;SDS011;43298;52.560;13.508;2024-02-26T01:45:13;3.05;;;2.85;;
13733;SDS011;43298;52.560;13.508;2024-02-26T01:47:45;1.95;;;1.85;;
13733;SDS011;43298;52.560;13.508;2024-02-26T01:50:14;1.92;;;1.83;;
13733;SDS011;43298;52.560;13.508;2024-02-26T01:52:40;1.85;;;1.75;;
13733;SDS011;43298;52.560;13.508;2024-02-26T01:55:07;1.90;;;1.80;;
13733;SDS011;43298;52.560;13.508;2024-02-26T01:57:33;1.95;;;1.85;;
13733;SDS011;43298;52.560;13.508;2024-02-26T02:00:00;2.13;;;2.03;;
13733;SDS011;43298;52.560;13.508;2024-02-26T02:02:26;1.90;;;1.80;;
13733;SDS011;43298;52.560;13.508;2024-02-26T02:04:52;2.00;;;1.90;;
13733;SDS011;43298;52.560;13.508;2024-02-26T02:07:18;1.80;;;1.70;;
13733;SDS011;43298;52.560;13.508;2024-02-26T02:09:46;1.92;;;1.83;;
13733;SDS011;43298;52.560;13.508;2024-02-26T02:12:12;2.20;;;2.10;;
13733;SDS011;43298;52.560;13.508;2024-02-26T02:14:39;2.00;;;1.90;;
13733;SDS011;43298;52.560;13.508;2024-02-26T02:17:06;1.98;;;1.88;;
13733;SDS011;43298;52.560;13.508;2024-02-26T02:19:32;2.03;;;1.92;;
13733;SDS011;43298;52.560;13.508;2024-02-26T02:21:59;1.90;;;1.80;;
13733;SDS011;43298;52.560;13.508;2024-02-26T02:24:25;1.92;;;1.83;;
13733;SDS011;43298;52.560;13.508;2024-02-26T02:26:51;1.80;;;1.70;;
13733;SDS011;43298;52.560;13.508;2024-02-26T02:29:17;2.00;;;1.90;;
13733;SDS011;43298;52.560;13.508;2024-02-26T02:31:43;1.70;;;1.60;;
13733;SDS011;43298;52.560;13.508;2024-02-26T02:34:09;1.90;;;1.80;;
13733;SDS011;43298;52.560;13.508;2024-02-26T02:36:47;2.00;;;1.90;;
13733;SDS011;43298;52.560;13.508;2024-02-26T02:39:16;2.30;;;2.20;;
13733;SDS011;43298;52.560;13.508;2024-02-26T02:41:42;1.90;;;1.80;;
13733;SDS011;43298;52.560;13.508;2024-02-26T02:44:08;2.00;;;1.90;;
13733;SDS011;43298;52.560;13.508;2024-02-26T02:46:35;2.10;;;2.00;;
13733;SDS011;43298;52.560;13.508;2024-02-26T02:49:01;1.88;;;1.77;;
13733;SDS011;43298;52.560;13.508;2024-02-26T02:51:27;1.90;;;1.80;;
13733;SDS011;43298;52.560;13.508;2024-02-26T02:53:53;1.92;;;1.83;;
13733;SDS011;43298;52.560;13.508;2024-02-26T02:56:19;1.80;;;1.70;;
13733;SDS011;43298;52.560;13.508;2024-02-26T02:58:45;1.95;;;1.85;;
13733;SDS011;43298;52.560;13.508;2024-02-26T03:01:13;1.88;;;1.77;;
13733;SDS011;43298;52.560;13.508;2024-02-26T03:03:39;1.90;;;1.80;;
13733;SDS011;43298;52.560;13.508;2024-02-26T03:06:05;1.90;;;1.80;;
13733;SDS011;43298;52.560;13.508;2024-02-26T03:08:31;1.88;;;1.77;;
13733;SDS011;43298;52.560;13.508;2024-02-26T03:10:58;1.92;;;1.83;;
13733;SDS011;43298;52.560;13.508;2024-02-26T03:13:24;1.90;;;1.80;;
13733;SDS011;43298;52.560;13.508;2024-02-26T03:15:51;1.80;;;1.70;;
13733;SDS011;43298;52.560;13.508;2024-02-26T03:18:17;1.80;;;1.70;;
13733;SDS011;43298;52.560;13.508;2024-02-26T03:20:43;2.03;;;1.92;;
13733;SDS011;43298;52.560;13.508;2024-02-26T03:23:09;1.90;;;1.80;;
13733;SDS011;43298;52.560;13.508;2024-02-26T03:25:37;1.92;;;1.83;;
13733;SDS011;43298;52.560;13.508;2024-02-26T03:28:04;2.00;;;1.90;;
13733;SDS011;43298;52.560;13.508;2024-02-26T03:30:30;1.90;;;1.80;;
13733;SDS011;43298;52.560;13.508;2024-02-26T03:32:56;1.90;;;1.80;;
13733;SDS011;43298;52.560;13.508;2024-02-26T03:35:22;1.98;;;1.88;;
13733;SDS011;43298;52.560;13.508;2024-02-26T03:37:48;2.10;;;2.00;;
13733;SDS011;43298;52.560;13.508;2024-02-26T03:40:16;1.80;;;1.70;;
13733;SDS011;43298;52.560;13.508;2024-02-26T03:42:44;2.00;;;1.90;;
13733;SDS011;43298;52.560;13.508;2024-02-26T03:45:11;1.67;;;1.58;;
13733;SDS011;43298;52.560;13.508;2024-02-26T03:47:40;1.90;;;1.80;;
13733;SDS011;43298;52.560;13.508;2024-02-26T03:50:06;1.80;;;1.70;;
13733;SDS011;43298;52.560;13.508;2024-02-26T03:52:33;1.77;;;1.67;;
13733;SDS011;43298;52.560;13.508;2024-02-26T03:54:59;2.10;;;2.00;;
13733;SDS011;43298;52.560;13.508;2024-02-26T03:57:26;1.58;;;1.52;;
13733;SDS011;43298;52.560;13.508;2024-02-26T03:59:52;2.10;;;2.00;;
13733;SDS011;43298;52.560;13.508;2024-02-26T04:02:18;2.03;;;1.92;;
13733;SDS011;43298;52.560;13.508;2024-02-26T04:04:45;1.83;;;1.73;;
13733;SDS011;43298;52.560;13.508;2024-02-26T04:07:11;1.92;;;1.83;;
13733;SDS011;43298;52.560;13.508;2024-02-26T04:09:38;1.65;;;1.60;;
13733;SDS011;43298;52.560;13.508;2024-02-26T04:12:04;1.80;;;1.70;;
13733;SDS011;43298;52.560;13.508;2024-02-26T04:14:31;1.70;;;1.60;;
13733;SDS011;43298;52.560;13.508;2024-02-26T04:16:57;1.85;;;1.75;;
13733;SDS011;43298;52.560;13.508;2024-02-26T04:19:23;1.70;;;1.60;;
13733;SDS011;43298;52.560;13.508;2024-02-26T04:21:49;1.88;;;1.77;;
13733;SDS011;43298;52.560;13.508;2024-02-26T04:24:15;1.90;;;1.80;;
13733;SDS011;43298;52.560;13.508;2024-02-26T04:26:41;1.90;;;1.80;;
13733;SDS011;43298;52.560;13.508;2024-02-26T04:29:08;1.80;;;1.70;;
13733;SDS011;43298;52.560;13.508;2024-02-26T04:31:34;1.90;;;1.80;;
13733;SDS011;43298;52.560;13.508;2024-02-26T04:34:02;1.90;;;1.80;;
13733;SDS011;43298;52.560;13.508;2024-02-26T04:36:29;1.85;;;1.75;;
13733;SDS011;43298;52.560;13.508;2024-02-26T04:38:55;2.10;;;2.00;;
13733;SDS011;43298;52.560;13.508;2024-02-26T04:41:21;2.00;;;1.90;;
13733;SDS011;43298;52.560;13.508;2024-02-26T04:43:48;1.90;;;1.80;;
13733;SDS011;43298;52.560;13.508;2024-02-26T04:46:14;1.95;;;1.85;;
13733;SDS011;43298;52.560;13.508;2024-02-26T04:48:40;2.08;;;1.98;;
13733;SDS011;43298;52.560;13.508;2024-02-26T04:51:11;2.00;;;1.90;;
13733;SDS011;43298;52.560;13.508;2024-02-26T04:53:37;1.92;;;1.83;;
13733;SDS011;43298;52.560;13.508;2024-02-26T04:56:04;1.90;;;1.80;;
13733;SDS011;43298;52.560;13.508;2024-02-26T04:58:30;2.00;;;1.90;;
13733;SDS011;43298;52.560;13.508;2024-02-26T05:00:56;1.95;;;1.85;;
13733;SDS011;43298;52.560;13.508;2024-02-26T05:03:22;2.58;;;2.47;;
13733;SDS011;43298;52.560;13.508;2024-02-26T05:05:48;1.90;;;1.80;;
13733;SDS011;43298;52.560;13.508;2024-02-26T05:08:14;2.33;;;2.22;;
13733;SDS011;43298;52.560;13.508;2024-02-26T05:10:41;2.10;;;2.00;;
13733;SDS011;43298;52.560;13.508;2024-02-26T05:13:08;2.60;;;2.40;;
13733;SDS011;43298;52.560;13.508;2024-02-26T05:15:35;1.83;;;1.73;;
13733;SDS011;43298;52.560;13.508;2024-02-26T05:18:01;1.90;;;1.80;;
13733;SDS011;43298;52.560;13.508;2024-02-26T05:20:28;1.73;;;1.63;;
13733;SDS011;43298;52.560;13.508;2024-02-26T05:22:54;1.85;;;1.75;;
13733;SDS011;43298;52.560;13.508;2024-02-26T05:25:20;1.70;;;1.60;;
13733;SDS011;43298;52.560;13.508;2024-02-26T05:27:46;1.70;;;1.60;;
13733;SDS011;43298;52.560;13.508;2024-02-26T05:30:12;1.80;;;1.70;;
13733;SDS011;43298;52.560;13.508;2024-02-26T05:32:39;2.17;;;2.08;;
13733;SDS011;43298;52.560;13.508;2024-02-26T05:35:05;2.05;;;1.95;;
13733;SDS011;43298;52.560;13.508;2024-02-26T05:37:32;1.60;;;1.50;;
13733;SDS011;43298;52.560;13.508;2024-02-26T05:39:58;1.73;;;1.63;;
13733;SDS011;43298;52.560;13.508;2024-02-26T05:42:25;1.67;;;1.58;;
13733;SDS011;43298;52.560;13.508;2024-02-26T05:44:51;1.70;;;1.60;;
13733;SDS011;43298;52.560;13.508;2024-02-26T05:47:17;1.50;;;1.50;;
13733;SDS011;43298;52.560;13.508;2024-02-26T05:49:43;1.90;;;1.80;;
13733;SDS011;43298;52.560;13.508;2024-02-26T05:52:09;1.73;;;1.63;;
13733;SDS011;43298;52.560;13.508;2024-02-26T05:54:35;1.73;;;1.63;;
13733;SDS011;43298;52.560;13.508;2024-02-26T05:57:01;1.92;;;1.83;;
13733;SDS011;43298;52.560;13.508;2024-02-26T05:59:28;1.80;;;1.70;;
13733;SDS011;43298;52.560;13.508;2024-02-26T06:01:54;1.80;;;1.70;;
13733;SDS011;43298;52.560;13.508;2024-02-26T06:04:20;1.45;;;1.45;;
13733;SDS011;43298;52.560;13.508;2024-02-26T06:06:46;1.58;;;1.50;;
13733;SDS011;43298;52.560;13.508;2024-02-26T06:09:12;1.75;;;1.65;;
13733;SDS011;43298;52.560;13.508;2024-02-26T06:11:39;1.70;;;1.60;;
13733;SDS011;43298;52.560;13.508;2024-02-26T06:14:05;1.83;;;1.73;;
13733;SDS011;43298;52.560;13.508;2024-02-26T06:16:31;1.65;;;1.60;;
13733;SDS011;43298;52.560;13.508;2024-02-26T06:18:58;1.65;;;1.55;;
13733;SDS011;43298;52.560;13.508;2024-02-26T06:21:25;1.40;;;1.40;;
13733;SDS011;43298;52.560;13.508;2024-02-26T06:23:51;1.75;;;1.65;;
13733;SDS011;43298;52.560;13.508;2024-02-26T06:26:17;1.63;;;1.52;;
13733;SDS011;43298;52.560;13.508;2024-02-26T06:28:43;1.50;;;1.50;;
13733;SDS011;43298;52.560;13.508;2024-02-26T06:31:09;1.80;;;1.70;;
13733;SDS011;43298;52.560;13.508;2024-02-26T06:33:35;1.50;;;1.50;;
13733;SDS011;43298;52.560;13.508;2024-02-26T06:36:02;1.70;;;1.60;;
13733;SDS011;43298;52.560;13.508;2024-02-26T06:38:29;1.40;;;1.40;;
13733;SDS011;43298;52.560;13.508;2024-02-26T06:40:55;1.48;;;1.45;;
13733;SDS011;43298;52.560;13.508;2024-02-26T06:43:21;1.20;;;1.20;;
13733;SDS011;43298;52.560;13.508;2024-02-26T06:45:47;1.20;;;1.20;;
13733;SDS011;43298;52.560;13.508;2024-02-26T06:48:14;1.20;;;1.20;;
13733;SDS011;43298;52.560;13.508;2024-02-26T06:50:40;1.10;;;1.10;;
13733;SDS011;43298;52.560;13.508;2024-02-26T06:53:06;1.20;;;1.20;;
13733;SDS011;43298;52.560;13.508;2024-02-26T06:55:33;1.30;;;1.30;;
13733;SDS011;43298;52.560;13.508;2024-02-26T06:57:59;1.20;;;1.20;;
13733;SDS011;43298;52.560;13.508;2024-02-26T07:00:25;1.20;;;1.20;;
13733;SDS011;43298;52.560;13.508;2024-02-26T07:02:51;1.00;;;1.00;;
13733;SDS011;43298;52.560;13.508;2024-02-26T07:05:18;1.00;;;1.00;;
13733;SDS011;43298;52.560;13.508;2024-02-26T07:07:44;1.10;;;1.10;;
13733;SDS011;43298;52.560;13.508;2024-02-26T07:10:10;1.10;;;1.10;;
13733;SDS011;43298;52.560;13.508;2024-02-26T07:12:37;1.00;;;1.00;;
13733;SDS011;43298;52.560;13.508;2024-02-26T07:15:04;1.20;;;1.15;;
13733;SDS011;43298;52.560;13.508;2024-02-26T07:17:32;0.93;;;0.93;;
13733;SDS011;43298;52.560;13.508;2024-02-26T07:20:02;0.90;;;0.90;;
13733;SDS011;43298;52.560;13.508;2024-02-26T07:22:29;0.90;;;0.90;;
13733;SDS011;43298;52.560;13.508;2024-02-26T07:24:56;0.90;;;0.90;;
13733;SDS011;43298;52.560;13.508;2024-02-26T07:27:22;1.30;;;1.30;;
13733;SDS011;43298;52.560;13.508;2024-02-26T07:29:48;0.90;;;0.90;;
13733;SDS011;43298;52.560;13.508;2024-02-26T07:32:14;0.80;;;0.80;;
13733;SDS011;43298;52.560;13.508;2024-02-26T07:34:40;1.17;;;1.17;;
13733;SDS011;43298;52.560;13.508;2024-02-26T07:37:09;1.65;;;1.55;;
13733;SDS011;43298;52.560;13.508;2024-02-26T07:39:36;0.90;;;0.90;;
13733;SDS011;43298;52.560;13.508;2024-02-26T07:42:02;0.80;;;0.80;;
13733;SDS011;43298;52.560;13.508;2024-02-26T07:44:28;1.35;;;1.25;;
13733;SDS011;43298;52.560;13.508;2024-02-26T07:46:54;1.60;;;1.50;;
13733;SDS011;43298;52.560;13.508;2024-02-26T07:49:20;0.77;;;0.77;;
13733;SDS011;43298;52.560;13.508;2024-02-26T07:51:46;0.90;;;0.90;;
13733;SDS011;43298;52.560;13.508;2024-02-26T07:54:11;0.80;;;0.80;;
13733;SDS011;43298;52.560;13.508;2024-02-26T07:56:37;1.55;;;1.45;;
13733;SDS011;43298;52.560;13.508;2024-02-26T07:59:03;1.38;;;1.27;;
13733;SDS011;43298;52.560;13.508;2024-02-26T08:01:29;0.90;;;0.90;;
13733;SDS011;43298;52.560;13.508;2024-02-26T08:03:54;1.02;;;1.00;;
13733;SDS011;43298;52.560;13.508;2024-02-26T08:06:20;1.60;;;1.50;;
13733;SDS011;43298;52.560;13.508;2024-02-26T08:08:48;1.13;;;1.00;;
13733;SDS011;43298;52.560;13.508;2024-02-26T08:11:16;0.70;;;0.70;;
13733;SDS011;43298;52.560;13.508;2024-02-26T08:13:42;0.70;;;0.70;;
13733;SDS011;43298;52.560;13.508;2024-02-26T08:16:08;0.75;;;0.75;;
13733;SDS011;43298;52.560;13.508;2024-02-26T08:18:34;0.60;;;0.60;;
13733;SDS011;43298;52.560;13.508;2024-02-26T08:21:00;0.65;;;0.65;;
13733;SDS011;43298;52.560;13.508;2024-02-26T08:23:25;0.60;;;0.60;;
13733;SDS011;43298;52.560;13.508;2024-02-26T08:25:51;1.40;;;1.30;;
13733;SDS011;43298;52.560;13.508;2024-02-26T08:28:17;0.80;;;0.80;;
13733;SDS011;43298;52.560;13.508;2024-02-26T08:30:43;1.70;;;1.58;;
13733;SDS011;43298;52.560;13.508;2024-02-26T08:33:09;0.90;;;0.90;;
13733;SDS011;43298;52.560;13.508;2024-02-26T08:35:35;0.63;;;0.63;;
13733;SDS011;43298;52.560;13.508;2024-02-26T08:38:01;0.60;;;0.60;;
13733;SDS011;43298;52.560;13.508;2024-02-26T08:40:27;0.50;;;0.50;;
13733;SDS011;43298;52.560;13.508;2024-02-26T08:42:54;0.60;;;0.60;;
13733;SDS011;43298;52.560;13.508;2024-02-26T08:45:20;0.95;;;0.93;;
13733;SDS011;43298;52.560;13.508;2024-02-26T08:47:46;0.50;;;0.50;;
13733;SDS011;43298;52.560;13.508;2024-02-26T08:50:13;1.67;;;1.25;;
13733;SDS011;43298;52.560;13.508;2024-02-26T08:52:39;0.60;;;0.60;;
13733;SDS011;43298;52.560;13.508;2024-02-26T08:55:06;0.50;;;0.50;;
13733;SDS011;43298;52.560;13.508;2024-02-26T08:57:33;0.50;;;0.50;;
13733;SDS011;43298;52.560;13.508;2024-02-26T09:00:00;0.60;;;0.60;;
13733;SDS011;43298;52.560;13.508;2024-02-26T09:02:26;1.90;;;1.73;;
13733;SDS011;43298;52.560;13.508;2024-02-26T09:04:52;0.95;;;0.95;;
13733;SDS011;43298;52.560;13.508;2024-02-26T09:07:20;1.42;;;1.17;;
13733;SDS011;43298;52.560;13.508;2024-02-26T09:09:46;0.40;;;0.40;;
13733;SDS011;43298;52.560;13.508;2024-02-26T09:12:12;2.05;;;1.92;;
13733;SDS011;43298;52.560;13.508;2024-02-26T09:14:38;0.60;;;0.60;;
13733;SDS011;43298;52.560;13.508;2024-02-26T09:17:04;0.63;;;0.63;;
13733;SDS011;43298;52.560;13.508;2024-02-26T09:19:31;1.23;;;0.95;;
13733;SDS011;43298;52.560;13.508;2024-02-26T09:21:56;2.17;;;1.95;;
13733;SDS011;43298;52.560;13.508;2024-02-26T09:24:23;0.80;;;0.80;;
13733;SDS011;43298;52.560;13.508;2024-02-26T09:26:50;5.97;;;2.75;;
13733;SDS011;43298;52.560;13.508;2024-02-26T09:29:16;2.47;;;1.63;;
13733;SDS011;43298;52.560;13.508;2024-02-26T09:31:42;1.60;;;1.50;;
13733;SDS011;43298;52.560;13.508;2024-02-26T09:34:08;0.47;;;0.47;;
13733;SDS011;43298;52.560;13.508;2024-02-26T09:36:34;1.42;;;1.30;;
13733;SDS011;43298;52.560;13.508;2024-02-26T09:39:00;1.52;;;1.42;;
13733;SDS011;43298;52.560;13.508;2024-02-26T09:41:27;0.88;;;0.88;;
13733;SDS011;43298;52.560;13.508;2024-02-26T09:43:57;0.40;;;0.40;;
13733;SDS011;43298;52.560;13.508;2024-02-26T09:46:27;0.35;;;0.35;;
13733;SDS011;43298;52.560;13.508;2024-02-26T09:48:53;0.52;;;0.52;;
13733;SDS011;43298;52.560;13.508;2024-02-26T09:51:20;0.90;;;0.90;;
13733;SDS011;43298;52.560;13.508;2024-02-26T09:53:51;2.30;;;1.27;;
13733;SDS011;43298;52.560;13.508;2024-02-26T09:56:17;0.68;;;0.68;;
13733;SDS011;43298;52.560;13.508;2024-02-26T09:58:44;1.35;;;1.25;;
13733;SDS011;43298;52.560;13.508;2024-02-26T10:01:16;0.30;;;0.30;;
13733;SDS011;43298;52.560;13.508;2024-02-26T10:03:43;0.52;;;0.52;;
13733;SDS011;43298;52.560;13.508;2024-02-26T10:06:13;0.45;;;0.45;;
13733;SDS011;43298;52.560;13.508;2024-02-26T10:08:39;0.88;;;0.88;;
13733;SDS011;43298;52.560;13.508;2024-02-26T10:11:08;0.75;;;0.75;;
13733;SDS011;43298;52.560;13.508;2024-02-26T10:13:35;2.03;;;1.45;;
13733;SDS011;43298;52.560;13.508;2024-02-26T10:16:01;1.83;;;0.82;;
13733;SDS011;43298;52.560;13.508;2024-02-26T10:18:50;4.07;;;1.77;;
13733;SDS011;43298;52.560;13.508;2024-02-26T10:21:19;0.68;;;0.68;;
13733;SDS011;43298;52.560;13.508;2024-02-26T10:23:46;1.20;;;1.20;;
13733;SDS011;43298;52.560;13.508;2024-02-26T10:26:13;0.68;;;0.68;;
13733;SDS011;43298;52.560;13.508;2024-02-26T10:28:44;0.20;;;0.20;;
13733;SDS011;43298;52.560;13.508;2024-02-26T10:31:10;0.63;;;0.63;;
13733;SDS011;43298;52.560;13.508;2024-02-26T10:33:39;0.50;;;0.50;;
13733;SDS011;43298;52.560;13.508;2024-02-26T10:36:06;1.42;;;0.60;;
13733;SDS011;43298;52.560;13.508;2024-02-26T10:38:33;0.73;;;0.73;;
13733;SDS011;43298;52.560;13.508;2024-02-26T10:41:04;1.65;;;0.50;;
13733;SDS011;43298;52.560;13.508;2024-02-26T10:43:31;2.53;;;2.42;;
13733;SDS011;43298;52.560;13.508;2024-02-26T10:45:57;0.25;;;0.25;;
13733;SDS011;43298;52.560;13.508;2024-02-26T10:48:23;0.45;;;0.45;;
13733;SDS011;43298;52.560;13.508;2024-02-26T10:50:49;0.30;;;0.30;;
13733;SDS011;43298;52.560;13.508;2024-02-26T10:53:22;0.20;;;0.20;;
13733;SDS011;43298;52.560;13.508;2024-02-26T10:55:54;1.75;;;0.68;;
13733;SDS011;43298;52.560;13.508;2024-02-26T10:58:24;0.55;;;0.55;;
13733;SDS011;43298;52.560;13.508;2024-02-26T11:00:51;0.63;;;0.60;;
13733;SDS011;43298;52.560;13.508;2024-02-26T11:03:18;0.43;;;0.43;;
13733;SDS011;43298;52.560;13.508;2024-02-26T11:05:48;1.63;;;0.50;;
13733;SDS011;43298;52.560;13.508;2024-02-26T11:08:15;1.17;;;1.10;;
13733;SDS011;43298;52.560;13.508;2024-02-26T11:10:45;0.63;;;0.63;;
13733;SDS011;43298;52.560;13.508;2024-02-26T11:13:14;0.35;;;0.35;;
13733;SDS011;43298;52.560;13.508;2024-02-26T11:15:44;0.40;;;0.40;;
13733;SDS011;43298;52.560;13.508;2024-02-26T11:18:16;0.80;;;0.80;;
13733;SDS011;43298;52.560;13.508;2024-02-26T11:20:44;0.77;;;0.38;;
13733;SDS011;43298;52.560;13.508;2024-02-26T11:23:13;2.35;;;1.55;;
13733;SDS011;43298;52.560;13.508;2024-02-26T11:25:38;0.20;;;0.20;;
13733;SDS011;43298;52.560;13.508;2024-02-26T11:28:14;0.38;;;0.38;;
13733;SDS011;43298;52.560;13.508;2024-02-26T11:30:44;1.20;;;1.15;;
13733;SDS011;43298;52.560;13.508;2024-02-26T11:33:13;0.30;;;0.30;;
13733;SDS011;43298;52.560;13.508;2024-02-26T11:35:40;0.20;;;0.20;;
13733;SDS011;43298;52.560;13.508;2024-02-26T11:38:06;1.08;;;1.02;;
13733;SDS011;43298;52.560;13.508;2024-02-26T11:40:33;2.78;;;0.77;;
13733;SDS011;43298;52.560;13.508;2024-02-26T11:43:06;0.50;;;0.50;;
13733;SDS011;43298;52.560;13.508;2024-02-26T11:48:14;1.27;;;1.20;;
13733;SDS011;43298;52.560;13.508;2024-02-26T11:50:43;0.22;;;0.22;;
13733;SDS011;43298;52.560;13.508;2024-02-26T11:58:44;0.50;;;0.50;;
13733;SDS011;43298;52.560;13.508;2024-02-26T12:04:27;0.52;;;0.52;;
13733;SDS011;43298;52.560;13.508;2024-02-26T12:06:57;1.13;;;0.82;;
13733;SDS011;43298;52.560;13.508;2024-02-26T12:09:30;0.63;;;0.63;;
13733;SDS011;43298;52.560;13.508;2024-02-26T12:14:37;0.47;;;0.35;;
13733;SDS011;43298;52.560;13.508;2024-02-26T12:17:04;0.77;;;0.77;;
13733;SDS011;43298;52.560;13.508;2024-02-26T12:19:33;3.33;;;1.25;;
13733;SDS011;43298;52.560;13.508;2024-02-26T12:22:03;0.93;;;0.93;;
13733;SDS011;43298;52.560;13.508;2024-02-26T12:24:31;0.63;;;0.63;;
13733;SDS011;43298;52.560;13.508;2024-02-26T12:26:57;0.70;;;0.70;;
13733;SDS011;43298;52.560;13.508;2024-02-26T12:29:23;0.32;;;0.32;;
13733;SDS011;43298;52.560;13.508;2024-02-26T12:31:49;0.70;;;0.50;;
13733;SDS011;43298;52.560;13.508;2024-02-26T12:34:14;1.63;;;1.52;;
13733;SDS011;43298;52.560;13.508;2024-02-26T12:36:41;0.73;;;0.73;;
13733;SDS011;43298;52.560;13.508;2024-02-26T12:39:07;2.33;;;0.70;;
13733;SDS011;43298;52.560;13.508;2024-02-26T12:41:34;1.50;;;1.40;;
13733;SDS011;43298;52.560;13.508;2024-02-26T12:44:01;0.47;;;0.10;;
13733;SDS011;43298;52.560;13.508;2024-02-26T12:46:27;0.30;;;0.30;;
13733;SDS011;43298;52.560;13.508;2024-02-26T12:48:55;0.40;;;0.40;;
13733;SDS011;43298;52.560;13.508;2024-02-26T12:51:23;0.43;;;0.43;;
13733;SDS011;43298;52.560;13.508;2024-02-26T12:53:51;1.27;;;0.93;;
13733;SDS011;43298;52.560;13.508;2024-02-26T12:56:20;0.30;;;0.30;;
13733;SDS011;43298;52.560;13.508;2024-02-26T12:58:48;0.08;;;0.08;;
13733;SDS011;43298;52.560;13.508;2024-02-26T13:01:17;0.47;;;0.47;;
13733;SDS011;43298;52.560;13.508;2024-02-26T13:03:47;0.70;;;0.70;;
13733;SDS011;43298;52.560;13.508;2024-02-26T13:06:16;0.22;;;0.22;;
13733;SDS011;43298;52.560;13.508;2024-02-26T13:08:43;0.75;;;0.70;;
13733;SDS011;43298;52.560;13.508;2024-02-26T13:11:11;0.20;;;0.20;;
13733;SDS011;43298;52.560;13.508;2024-02-26T13:13:38;0.45;;;0.45;;
13733;SDS011;43298;52.560;13.508;2024-02-26T13:16:04;0.47;;;0.47;;
13733;SDS011;43298;52.560;13.508;2024-02-26T13:18:33;0.10;;;0.10;;
13733;SDS011;43298;52.560;13.508;2024-02-26T13:21:09;0.52;;;0.52;;
13733;SDS011;43298;52.560;13.508;2024-02-26T13:23:40;0.55;;;0.55;;
13733;SDS011;43298;52.560;13.508;2024-02-26T13:26:07;0.17;;;0.17;;
13733;SDS011;43298;52.560;13.508;2024-02-26T13:28:36;1.52;;;1.42;;
13733;SDS011;43298;52.560;13.508;2024-02-26T13:31:02;0.10;;;0.10;;
13733;SDS011;43298;52.560;13.508;2024-02-26T13:33:31;0.35;;;0.35;;
13733;SDS011;43298;52.560;13.508;2024-02-26T13:35:58;0.20;;;0.20;;
13733;SDS011;43298;52.560;13.508;2024-02-26T13:38:25;0.55;;;0.55;;
13733;SDS011;43298;52.560;13.508;2024-02-26T13:40:52;0.08;;;0.08;;
13733;SDS011;43298;52.560;13.508;2024-02-26T13:43:18;0.10;;;0.10;;
13733;SDS011;43298;52.560;13.508;2024-02-26T13:45:45;0.28;;;0.28;;
13733;SDS011;43298;52.560;13.508;2024-02-26T13:48:12;0.43;;;0.32;;
13733;SDS011;43298;52.560;13.508;2024-02-26T13:50:39;0.35;;;0.35;;
13733;SDS011;43298;52.560;13.508;2024-02-26T13:53:06;1.10;;;0.68;;
13733;SDS011;43298;52.560;13.508;2024-02-26T13:55:32;0.10;;;0.10;;
13733;SDS011;43298;52.560;13.508;2024-02-26T13:57:58;0.30;;;0.30;;
13733;SDS011;43298;52.560;13.508;2024-02-26T14:00:28;0.10;;;0.10;;
13733;SDS011;43298;52.560;13.508;2024-02-26T14:02:58;0.52;;;0.52;;
13733;SDS011;43298;52.560;13.508;2024-02-26T14:05:25;0.10;;;0.10;;
13733;SDS011;43298;52.560;13.508;2024-02-26T14:07:51;0.10;;;0.10;;
13733;SDS011;43298;52.560;13.508;2024-02-26T14:10:18;0.35;;;0.35;;
13733;SDS011;43298;52.560;13.508;2024-02-26T14:12:44;1.50;;;0.70;;
13733;SDS011;43298;52.560;13.508;2024-02-26T14:15:10;0.20;;;0.20;;
13733;SDS011;43298;52.560;13.508;2024-02-26T14:17:36;0.43;;;0.43;;
13733;SDS011;43298;52.560;13.508;2024-02-26T14:20:02;0.88;;;0.88;;
13733;SDS011;43298;52.560;13.508;2024-02-26T14:22:29;0.63;;;0.52;;
13733;SDS011;43298;52.560;13.508;2024-02-26T14:24:58;0.10;;;0.10;;
13733;SDS011;43298;52.560;13.508;2024-02-26T14:27:24;4.53;;;1.40;;
13733;SDS011;43298;52.560;13.508;2024-02-26T14:29:50;3.20;;;0.73;;
13733;SDS011;43298;52.560;13.508;2024-02-26T14:32:16;1.15;;;1.13;;
13733;SDS011;43298;52.560;13.508;2024-02-26T14:34:42;1.08;;;0.63;;
13733;SDS011;43298;52.560;13.508;2024-02-26T14:37:08;0.47;;;0.47;;
13733;SDS011;43298;52.560;13.508;2024-02-26T14:39:34;0.35;;;0.35;;
13733;SDS011;43298;52.560;13.508;2024-02-26T14:42:00;0.30;;;0.30;;
13733;SDS011;43298;52.560;13.508;2024-02-26T14:44:26;0.88;;;0.88;;